• Join FlightAware (Why Join?)
  • Login
  • US Flag 
05:49PM EDT


 

Airport Tracker/Info


-or-


 

Live Flight TrackerFlight Track Log ✈ SWA2855 ✈ 19-Apr-2013 ✈ KBWI - KCMH

Flight Track Log - Related Links

Times and Time Zones

All times are in EDT time to prevent confusion due to time zone crossing. See the SWA2855 flight status page for this flight to view local times or setup timezone preferences in your user account.

Time Position Orientation Groundspeed Altitude Reporting Facility
EDT Latitude Longitude Course Direction KTS MPH feet Rate Location/Type
06:22AM 39.1333 -76.6667 211° Southwest 181 208 1,900  Level Potomac TRACON
06:23AM 39.1833 -76.7167 322° Northwest 238 274 4,700 3,120 Climbing Potomac TRACON
06:23AM 39.2000 -76.8000 284° West 253 291 7,800 3,360 Climbing Potomac TRACON
06:24AM 39.2000 -76.8833 270° West 279 321 10,800 3,300 Climbing Potomac TRACON
06:25AM 39.2167 -76.9833 282° West 279 321 14,100 2,640 Climbing Potomac TRACON
06:26AM 39.2167 -77.0833 270° West 337 388 15,900 2,400 Climbing Potomac TRACON
06:27AM 39.0590 -77.2634 211° Southwest  Level FlightAware Approximate
06:27AM 39.1667 -77.1833 237° Southwest 346 398 18,700  Level Potomac TRACON
06:29AM 39.0472 -77.2942 216° Southwest 382 440 22,100 4,380 Climbing Washington Center
06:30AM 38.9956 -77.4158 241° Southwest 357 411 30,000 2,400 Climbing Washington Center
06:31AM 38.9911 -77.5600 268° West 375 432 26,900 -900 Descending Washington Center
06:32AM 38.9869 -77.6881 268° West 393 452 28,300 1,500 Climbing Washington Center
06:33AM 38.9778 -77.8400 266° West 393 452 30,000 840 Climbing Washington Center
06:34AM 38.9708 -77.9867 267° West 405 466 30,000  Level Washington Center
06:35AM 38.9639 -78.1306 266° West 405 466 30,000  Level Washington Center
06:36AM 38.9625 -78.2800 269° West 410 472 30,000 -600 Level Washington Center
06:37AM 38.9678 -78.4217 273° West 410 472 28,800 -1,020 Descending Washington Center
06:38AM 38.9706 -78.5606 272° West 398 458 28,000 -420 Descending Washington Center
06:39AM 38.9756 -78.6944 273° West 392 451 28,000  Level Washington Center
06:40AM 38.9803 -78.8333 273° West 392 451 28,000  Level Washington Center
06:41AM 38.9825 -78.9750 271° West 392 451 28,000  Level Washington Center
06:42AM 38.9869 -79.1169 272° West 392 451 28,000  Level Washington Center
06:43AM 38.9908 -79.2611 272° West 402 463 28,000  Level Washington Center
06:44AM 38.9947 -79.4056 272° West 407 468 28,000  Level Washington Center
06:45AM 38.9983 -79.5500 272° West 407 468 28,000  Level Washington Center
06:46AM 39.0017 -79.7025 272° West 417 480 28,000  Level Washington Center
06:47AM 39.0028 -79.8469 271° West 422 486 28,000  Level Washington Center
06:49AM 39.0039 -80.1131 270° West 409 471 28,000  Level Indianapolis Center
06:50AM 39.0056 -80.2583 271° West 408 470 28,000  Level Indianapolis Center
06:51AM 39.0089 -80.4053 272° West 410 472 28,000  Level Indianapolis Center
06:52AM 39.0106 -80.5492 271° West 405 466 28,000 -60 Level Indianapolis Center
06:53AM 39.0397 -80.6869 285° West 408 470 27,900 -300 Descending Indianapolis Center
06:54AM 39.0839 -80.8167 294° West 396 456 27,500 -720 Descending Indianapolis Center
06:55AM 39.1275 -80.9436 294° West 391 450 26,500 -960 Descending Indianapolis Center
06:56AM 39.1703 -81.0697 294° West 386 444 25,600 -1,080 Descending Indianapolis Center
06:57AM 39.2206 -81.2206 293° West 384 442 24,400 -1,140 Descending Indianapolis Center
06:58AM 39.2625 -81.3461 293° West 383 441 23,400 -960 Descending Indianapolis Center
06:59AM 39.3039 -81.4703 293° West 381 438 22,500 -1,020 Descending Indianapolis Center
07:01AM 39.3817 -81.7086 293° West 357 411 20,400 -840 Descending Indianapolis Center
07:02AM 39.4192 -81.8222 293° West 346 398 20,000 -240 Descending Indianapolis Center
07:03AM 39.4564 -81.9383 293° West 348 400 20,000 -1,320 Level Indianapolis Center
07:04AM 39.4942 -82.0517 293° West 346 398 17,400 -2,520 Descending Indianapolis Center
07:05AM 39.5333 -82.1742 293° West 331 381 14,900 -2,400 Descending Indianapolis Center
07:06AM 39.5669 -82.2778 293° West 312 359 12,600 -2,100 Descending Indianapolis Center
07:07AM 39.6017 -82.3803 294° West 308 354 10,700 -1,320 Descending Indianapolis Center
07:08AM 39.6464 -82.4672 304° West 290 334 10,000 -360 Descending Indianapolis Center
07:09AM 39.6869 -82.5500 303° West 274 315 10,000  Level Indianapolis Center
07:10AM 39.7397 -82.6286 311° West 289 333 10,000 -360 Level Indianapolis Center
07:11AM 39.7994 -82.7006 317° Northwest 292 336 9,300 -1,380 Descending Indianapolis Center
07:12AM 39.8572 -82.7714 317° Northwest 287 330 7,300 -1,920 Descending Indianapolis Center
07:12AM 39.8744 -82.7897 321° Northwest 286 329 6,900 -1,320 Descending Indianapolis Center
07:13AM 39.9083 -82.8433 310° West 270 311 6,000 -540 Descending Indianapolis Center
07:14AM 39.9289 -82.9211 289° West 226 260 6,000 -840 Level Indianapolis Center
07:15AM 39.9281 -82.9964 269° West 212 244 4,400 -1,440 Descending Indianapolis Center
07:16AM 39.9261 -83.0725 268° West 209 241 3,100 -720 Descending Indianapolis Center
07:17AM 39.9306 -83.1481 274° West 208 239 3,000 -60 Descending Indianapolis Center
07:18AM 39.9800 -83.1697 341° North 214 246 3,000  Level Indianapolis Center
07:19AM 40.0075 -83.1058 61° Northeast 215 247 3,000 -180 Level Indianapolis Center
07:20AM 40.0025 -83.0328 95° East 182 209 2,700 -600 Descending Indianapolis Center
07:21AM 39.9997 -82.9806 94° East 154 177 1,900 -840 Descending Indianapolis Center
07:22AM 39.9953 -82.9256 96° East 149 171 1,100 -840 Descending Indianapolis Center